createdAt,value
2022-12-23T00:01:43.496Z,98682.44
2022-12-23T00:04:11.986Z,98678.28
2022-12-23T00:06:40.509Z,98684.56
2022-12-23T00:09:08.905Z,98688.47
2022-12-23T00:11:37.275Z,98677.72
2022-12-23T00:14:23.174Z,98678.59
2022-12-23T00:16:53.328Z,98678.94
2022-12-23T00:19:21.877Z,98674.59
2022-12-23T00:21:50.287Z,98673.00
2022-12-23T00:24:18.894Z,98676.06
2022-12-23T00:26:47.294Z,98677.53
2022-12-23T00:29:15.750Z,98683.34
2022-12-23T00:31:44.204Z,98684.50
2022-12-23T00:34:14.217Z,98682.34
2022-12-23T00:36:42.678Z,98676.34
2022-12-23T00:39:31.744Z,98667.88
2022-12-23T00:42:17.466Z,98675.91
2022-12-23T00:44:46.081Z,98674.88
2022-12-23T00:47:36.166Z,98664.19
2022-12-23T00:50:06.217Z,98663.69
2022-12-23T00:52:34.810Z,98660.44
2022-12-23T00:55:03.195Z,98660.75
2022-12-23T00:57:31.614Z,98667.34
2022-12-23T01:00:00.014Z,98662.47
2022-12-23T01:02:46.120Z,98668.25
2022-12-23T01:05:33.316Z,98672.41
2022-12-23T01:08:01.788Z,98673.53
2022-12-23T01:10:30.434Z,98669.97
2022-12-23T01:12:58.826Z,98661.50
2022-12-23T01:15:27.587Z,98661.50
2022-12-23T01:17:56.457Z,98657.38
2022-12-23T01:20:26.517Z,98651.63
2022-12-23T01:22:54.951Z,98651.91
2022-12-23T01:25:23.363Z,98646.72
2022-12-23T01:27:51.797Z,98640.69
2022-12-23T01:30:20.411Z,98644.53
2022-12-23T01:32:48.780Z,98652.75
2022-12-23T01:35:17.469Z,98653.88
2022-12-23T01:37:47.221Z,98647.81
2022-12-23T01:40:15.774Z,98651.13
2022-12-23T01:42:46.762Z,98644.28
2022-12-23T01:45:18.864Z,98651.97
2022-12-23T01:47:54.469Z,98649.50
2022-12-23T01:50:27.369Z,98639.63
2022-12-23T01:53:08.048Z,98640.72
2022-12-23T01:55:44.537Z,98641.53
2022-12-23T01:58:19.076Z,98640.47
2022-12-23T02:01:04.749Z,98641.25
2022-12-23T02:03:45.484Z,98635.50
2022-12-23T02:06:38.179Z,98634.41
2022-12-23T02:09:20.983Z,98636.59
2022-12-23T02:12:36.914Z,98636.84
2022-12-23T02:15:42.074Z,98632.47
2022-12-23T02:18:55.611Z,98623.09
2022-12-23T02:22:17.738Z,98620.63
2022-12-23T02:25:26.901Z,98611.28
2022-12-23T02:28:18.768Z,98607.16
2022-12-23T02:30:55.801Z,98612.94
2022-12-23T02:33:51.308Z,98608.00
2022-12-23T02:36:35.947Z,98615.94
2022-12-23T02:39:09.890Z,98599.75
2022-12-23T02:41:49.538Z,98601.66
2022-12-23T02:44:31.272Z,98612.09
2022-12-23T02:47:06.734Z,98598.38
2022-12-23T02:49:39.180Z,98597.00
2022-12-23T02:52:18.476Z,98595.06
2022-12-23T02:54:54.807Z,98592.88
2022-12-23T02:57:30.799Z,98585.16
2022-12-23T03:00:00.184Z,98581.03
2022-12-23T03:02:31.708Z,98587.06
2022-12-23T03:05:01.167Z,98578.53
2022-12-23T03:07:36.548Z,98579.06
2022-12-23T03:10:17.701Z,98573.31
2022-12-23T03:13:01.998Z,98565.63
2022-12-23T03:15:40.225Z,98571.34
2022-12-23T03:18:22.301Z,98561.72
2022-12-23T03:20:55.931Z,98559.78
2022-12-23T03:23:30.308Z,98568.00
2022-12-23T03:26:05.770Z,98561.91
2022-12-23T03:28:41.093Z,98568.47
2022-12-23T03:31:15.726Z,98561.88
2022-12-23T03:33:49.303Z,98559.41
2022-12-23T03:36:23.464Z,98566.78
2022-12-23T03:38:54.799Z,98573.91
2022-12-23T03:41:31.427Z,98574.75
2022-12-23T03:44:07.555Z,98576.44
2022-12-23T03:46:40.631Z,98578.91
2022-12-23T03:49:16.178Z,98588.84
2022-12-23T03:51:52.245Z,98582.28
2022-12-23T03:54:27.303Z,98574.91
2022-12-23T03:57:03.733Z,98573.00
2022-12-23T03:59:35.719Z,98573.25
2022-12-23T04:02:11.803Z,98570.53
2022-12-23T04:05:19.661Z,98570.53
2022-12-23T04:07:55.690Z,98577.09
2022-12-23T04:10:25.126Z,98579.25
2022-12-23T04:12:53.799Z,98588.63
2022-12-23T04:15:23.966Z,98597.97
2022-12-23T04:17:54.371Z,98613.13
2022-12-23T04:20:24.699Z,98608.81
2022-12-23T04:22:53.228Z,98605.78
2022-12-23T04:25:21.667Z,98614.88
2022-12-23T04:27:50.086Z,98609.16
2022-12-23T04:30:18.655Z,98605.84
2022-12-23T04:32:47.163Z,98609.19
2022-12-23T04:35:15.605Z,98604.78
2022-12-23T04:37:45.416Z,98605.88
2022-12-23T04:40:14.579Z,98604.78
2022-12-23T04:42:42.980Z,98602.03
2022-12-23T04:45:12.372Z,98604.78
2022-12-23T04:47:41.554Z,98602.31
2022-12-23T04:50:15.787Z,98603.41
2022-12-23T04:52:46.244Z,98592.16
2022-12-23T04:55:14.704Z,98591.59
2022-12-23T04:57:43.193Z,98572.69
2022-12-23T05:00:13.108Z,98561.41
2022-12-23T05:02:41.582Z,98568.56
2022-12-23T05:05:10.795Z,98569.91
2022-12-23T05:07:39.189Z,98567.47
2022-12-23T05:10:11.129Z,98580.09
2022-12-23T05:12:39.530Z,98573.78
2022-12-23T05:15:10.153Z,98574.88
2022-12-23T05:17:38.544Z,98574.03
2022-12-23T05:20:08.967Z,98567.19
2022-12-23T05:22:37.475Z,98567.19
2022-12-23T05:25:09.072Z,98558.41
2022-12-23T05:27:37.868Z,98552.13
2022-12-23T05:30:08.429Z,98544.69
2022-12-23T05:32:36.998Z,98542.50
2022-12-23T05:35:06.002Z,98539.47
2022-12-23T05:37:34.374Z,98537.81
2022-12-23T05:40:02.779Z,98536.97
2022-12-23T05:42:32.754Z,98534.78
2022-12-23T05:45:01.110Z,98528.72
2022-12-23T05:47:29.537Z,98515.53
2022-12-23T05:49:57.927Z,98522.69
2022-12-23T05:52:26.451Z,98531.16
2022-12-23T05:54:54.893Z,98535.81
2022-12-23T05:57:23.389Z,98531.16
2022-12-23T05:59:53.747Z,98539.41
2022-12-23T06:02:22.499Z,98545.72
2022-12-23T06:04:51.261Z,98543.25
2022-12-23T06:07:19.658Z,98560.28
2022-12-23T06:09:48.238Z,98561.13
2022-12-23T06:12:16.618Z,98556.19
2022-12-23T06:14:45.077Z,98569.09
2022-12-23T06:17:14.919Z,98580.34
2022-12-23T06:19:43.436Z,98574.03
2022-12-23T06:22:11.843Z,98575.69
2022-12-23T06:24:40.334Z,98568.00
2022-12-23T06:27:08.944Z,98579.53
2022-12-23T06:29:37.439Z,98571.88
2022-12-23T06:32:06.535Z,98553.22
2022-12-23T06:34:36.625Z,98558.16
2022-12-23T06:37:05.058Z,98568.03
2022-12-23T06:39:33.518Z,98581.75
2022-12-23T06:42:01.948Z,98584.22
2022-12-23T06:44:30.431Z,98579.00
2022-12-23T06:46:59.035Z,98566.63
2022-12-23T06:49:27.466Z,98568.28
2022-12-23T06:51:57.283Z,98568.81
2022-12-23T06:54:25.752Z,98571.56
2022-12-23T06:56:54.253Z,98574.88
2022-12-23T06:59:22.695Z,98565.78
2022-12-23T07:01:51.238Z,98539.72
2022-12-23T07:04:19.841Z,98556.72
2022-12-23T07:06:48.271Z,98554.81
2022-12-23T07:09:18.320Z,98555.34
2022-12-23T07:11:46.978Z,98543.53
2022-12-23T07:14:15.548Z,98545.75
2022-12-23T07:16:43.995Z,98546.88
2022-12-23T07:19:12.478Z,98555.94
2022-12-23T07:21:40.993Z,98556.72
2022-12-23T07:24:10.179Z,98561.13
2022-12-23T07:26:40.007Z,98560.84
2022-12-23T07:29:08.429Z,98563.03
2022-12-23T07:31:40.705Z,98562.47
2022-12-23T07:34:09.971Z,98575.34
2022-12-23T07:36:38.470Z,98575.59
2022-12-23T07:39:07.241Z,98570.38
2022-12-23T07:41:35.780Z,98568.69
2022-12-23T07:44:05.729Z,98583.50
2022-12-23T07:46:34.200Z,98589.78
2022-12-23T07:49:02.659Z,98590.56
2022-12-23T07:51:31.179Z,98579.56
2022-12-23T07:54:00.099Z,98585.31
2022-12-23T07:56:28.684Z,98611.94
2022-12-23T07:58:57.164Z,98593.19
2022-12-23T08:01:27.144Z,98597.03
2022-12-23T08:03:56.331Z,98614.28
2022-12-23T08:06:24.893Z,98585.16
2022-12-23T08:08:53.512Z,98584.31
2022-12-23T08:11:21.938Z,98589.06
2022-12-23T08:13:50.470Z,98590.41
2022-12-23T08:16:18.999Z,98586.78
2022-12-23T08:18:48.945Z,98583.78
2022-12-23T08:21:20.092Z,98600.25
2022-12-23T08:23:49.487Z,98603.53
2022-12-23T08:26:22.309Z,98603.78
2022-12-23T08:28:53.583Z,98607.09
2022-12-23T08:31:25.343Z,98598.84
2022-12-23T08:33:58.055Z,98596.88
2022-12-23T08:36:29.499Z,98600.47
2022-12-23T08:39:01.095Z,98598.00
2022-12-23T08:41:32.531Z,98592.50
2022-12-23T08:44:01.449Z,98602.38
2022-12-23T08:46:30.324Z,98594.41
2022-12-23T08:49:00.390Z,98600.41
2022-12-23T08:51:29.519Z,98610.59
2022-12-23T08:54:00.924Z,98604.88
2022-12-23T08:56:33.302Z,98605.13
2022-12-23T08:59:02.300Z,98599.09
2022-12-23T09:01:33.450Z,98593.06
2022-12-23T09:04:06.180Z,98589.28
2022-12-23T09:06:37.557Z,98579.38
2022-12-23T09:09:06.660Z,98579.09
2022-12-23T09:11:36.087Z,98571.63
2022-12-23T09:14:05.421Z,98573.75
2022-12-23T09:16:33.986Z,98580.56
2022-12-23T09:19:04.471Z,98578.03
2022-12-23T09:21:32.958Z,98573.06
2022-12-23T09:24:01.660Z,98571.13
2022-12-23T09:26:32.307Z,98579.09
2022-12-23T09:29:01.836Z,98572.31
2022-12-23T09:31:36.249Z,98578.34
2022-12-23T09:34:07.685Z,98577.25
2022-12-23T09:36:36.208Z,98565.41
2022-12-23T09:39:05.274Z,98569.56
2022-12-23T09:41:50.069Z,98569.03
2022-12-23T09:44:44.766Z,98552.59
2022-12-23T09:47:18.781Z,98548.19
2022-12-23T09:49:53.705Z,98539.72
2022-12-23T09:52:28.382Z,98541.94
2022-12-23T09:54:57.348Z,98541.41
2022-12-23T09:57:37.454Z,98537.53
2022-12-23T10:00:13.207Z,98538.63
2022-12-23T10:03:01.696Z,98542.47
2022-12-23T10:05:45.079Z,98539.72
2022-12-23T10:08:23.716Z,98541.38
2022-12-23T10:10:57.991Z,98534.22
2022-12-23T10:13:29.796Z,98536.44
2022-12-23T10:16:03.955Z,98537.31
2022-12-23T10:18:46.955Z,98534.81
2022-12-23T10:21:26.468Z,98543.38
2022-12-23T10:23:56.526Z,98537.56
2022-12-23T10:26:31.391Z,98534.50
2022-12-23T10:29:11.798Z,98541.53
2022-12-23T10:31:56.842Z,98542.84
2022-12-23T10:34:38.601Z,98535.09
2022-12-23T10:37:16.205Z,98535.97
2022-12-23T10:39:51.736Z,98532.75
2022-12-23T10:42:29.618Z,98531.75
2022-12-23T10:45:28.854Z,98538.19
2022-12-23T10:48:14.152Z,98530.50
2022-12-23T10:50:56.889Z,98519.28
2022-12-23T10:53:38.562Z,98525.81
2022-12-23T10:56:08.511Z,98535.97
2022-12-23T10:58:42.485Z,98529.59
2022-12-23T11:01:22.098Z,98531.97
2022-12-23T11:04:04.937Z,98520.63
2022-12-23T11:06:38.030Z,98531.88
2022-12-23T11:09:16.113Z,98523.84
2022-12-23T11:12:00.794Z,98531.84
2022-12-23T11:14:36.441Z,98532.09
2022-12-23T11:17:16.120Z,98532.94
2022-12-23T11:19:44.679Z,98533.44
2022-12-23T11:22:25.337Z,98536.50
2022-12-23T11:24:55.239Z,98530.41
2022-12-23T11:27:23.777Z,98529.31
2022-12-23T11:29:55.367Z,98532.06
2022-12-23T11:32:28.649Z,98525.91
2022-12-23T11:34:58.103Z,98522.50
2022-12-23T11:37:42.431Z,98526.59
2022-12-23T11:40:25.399Z,98523.28
2022-12-23T11:42:59.220Z,98521.25
2022-12-23T11:45:30.276Z,98516.91
2022-12-23T11:47:58.875Z,98514.38
2022-12-23T11:50:34.379Z,98514.03
2022-12-23T11:53:13.523Z,98516.50
2022-12-23T11:55:58.383Z,98508.63
2022-12-23T11:58:28.873Z,98507.06
2022-12-23T12:01:00.708Z,98510.22
2022-12-23T12:03:34.098Z,98499.75
2022-12-23T12:06:06.371Z,98484.69
2022-12-23T12:08:38.494Z,98478.47
2022-12-23T12:11:16.674Z,98475.38
2022-12-23T12:13:49.429Z,98490.00
2022-12-23T12:16:49.452Z,98487.13
2022-12-23T12:19:25.611Z,98480.97
2022-12-23T12:22:00.576Z,98472.38
2022-12-23T12:24:34.173Z,98472.31
2022-12-23T12:27:09.265Z,98484.34
2022-12-23T12:29:46.530Z,98491.66
2022-12-23T12:32:23.833Z,98487.84
2022-12-23T12:34:58.988Z,98483.94
2022-12-23T12:37:39.245Z,98484.91
2022-12-23T12:40:23.633Z,98507.69
2022-12-23T12:43:00.009Z,98491.81
2022-12-23T12:45:35.901Z,98501.34
2022-12-23T12:48:37.624Z,98505.66
2022-12-23T12:51:14.243Z,98508.59
2022-12-23T12:54:02.882Z,98502.03
2022-12-23T12:56:42.205Z,98499.44
2022-12-23T12:59:19.099Z,98495.84
2022-12-23T13:02:01.673Z,98489.97
2022-12-23T13:05:25.975Z,98495.97
2022-12-23T13:08:13.010Z,98498.69
2022-12-23T13:10:50.062Z,98517.69
2022-12-23T13:13:36.626Z,98508.81
2022-12-23T13:16:18.309Z,98514.13
2022-12-23T13:18:57.591Z,98524.09
2022-12-23T13:21:34.028Z,98525.44
2022-12-23T13:24:16.122Z,98529.56
2022-12-23T13:26:59.974Z,98528.34
2022-12-23T13:30:01.858Z,98533.16
2022-12-23T13:32:59.810Z,98530.53
2022-12-23T13:35:43.405Z,98537.38
2022-12-23T13:38:31.028Z,98545.38
2022-12-23T13:41:07.116Z,98542.59
2022-12-23T13:43:44.781Z,98550.69
2022-12-23T13:46:36.955Z,98532.69
2022-12-23T13:49:16.874Z,98543.44
2022-12-23T13:51:53.346Z,98542.75
2022-12-23T13:54:37.953Z,98537.34
2022-12-23T13:57:19.422Z,98536.84
2022-12-23T14:00:06.359Z,98538.75
2022-12-23T14:02:52.017Z,98536.84
2022-12-23T14:05:38.015Z,98535.50
2022-12-23T14:08:09.491Z,98537.75
2022-12-23T14:10:38.152Z,98538.34
2022-12-23T14:13:09.662Z,98541.72
2022-12-23T14:16:05.366Z,98536.63
2022-12-23T14:19:05.563Z,98543.38
2022-12-23T14:21:49.527Z,98549.00
2022-12-23T14:25:13.217Z,98547.16
2022-12-23T14:27:52.723Z,98549.97
2022-12-23T14:30:29.133Z,98551.53
2022-12-23T14:33:01.399Z,98552.44
2022-12-23T14:35:58.641Z,98558.94
2022-12-23T14:38:31.668Z,98563.41
2022-12-23T14:41:25.746Z,98565.22
2022-12-23T14:43:59.691Z,98573.63
2022-12-23T14:46:59.417Z,98569.59
2022-12-23T14:49:48.799Z,98578.16
2022-12-23T14:52:49.061Z,98566.03
2022-12-23T14:55:45.806Z,98559.47
2022-12-23T14:59:12.488Z,98556.50
2022-12-23T15:01:44.368Z,98555.38
2022-12-23T15:04:24.574Z,98553.72
2022-12-23T15:06:58.486Z,98557.63
2022-12-23T15:09:31.454Z,98560.66
2022-12-23T15:12:07.649Z,98554.63
2022-12-23T15:14:40.943Z,98559.63
2022-12-23T15:17:26.494Z,98554.94
2022-12-23T15:20:03.404Z,98557.41
2022-12-23T15:22:32.889Z,98554.03
2022-12-23T15:25:01.365Z,98562.00
2022-12-23T15:27:36.518Z,98558.66
2022-12-23T15:30:05.799Z,98561.94
2022-12-23T15:32:34.356Z,98561.63
2022-12-23T15:35:07.306Z,98565.72
2022-12-23T15:37:36.211Z,98564.28
2022-12-23T15:40:13.228Z,98553.78
2022-12-23T15:42:49.104Z,98570.31
2022-12-23T15:45:36.232Z,98573.06
2022-12-23T15:48:07.095Z,98566.97
2022-12-23T15:50:41.889Z,98558.69
2022-12-23T15:53:14.357Z,98574.94
2022-12-23T15:55:43.008Z,98570.25
2022-12-23T15:58:21.180Z,98565.03
2022-12-23T16:00:57.541Z,98564.72
2022-12-23T16:03:33.002Z,98565.22
2022-12-23T16:06:18.763Z,98565.22
2022-12-23T16:08:56.400Z,98562.19
2022-12-23T16:11:25.155Z,98556.34
2022-12-23T16:14:01.361Z,98560.22
2022-12-23T16:16:41.829Z,98549.19
2022-12-23T16:19:43.793Z,98553.59
2022-12-23T16:22:30.532Z,98547.78
2022-12-23T16:25:11.929Z,98543.91
2022-12-23T16:27:44.700Z,98537.56
2022-12-23T16:30:19.607Z,98530.72
2022-12-23T16:32:52.497Z,98535.41
2022-12-23T16:35:40.457Z,98531.34
2022-12-23T16:38:15.831Z,98534.09
2022-12-23T16:40:46.144Z,98540.41
2022-12-23T16:43:15.050Z,98536.84
2022-12-23T16:45:46.041Z,98536.31
2022-12-23T16:48:26.292Z,98532.75
2022-12-23T16:50:55.618Z,98531.41
2022-12-23T16:53:24.165Z,98531.69
2022-12-23T16:55:56.810Z,98531.19
2022-12-23T16:58:28.961Z,98539.78
2022-12-23T17:00:59.173Z,98538.13
2022-12-23T17:03:27.765Z,98538.13
2022-12-23T17:05:56.411Z,98541.19
2022-12-23T17:08:24.971Z,98543.75
2022-12-23T17:10:53.907Z,98553.13
2022-12-23T17:13:22.364Z,98553.44
2022-12-23T17:15:50.793Z,98547.94
2022-12-23T17:18:20.721Z,98549.88
2022-12-23T17:20:50.334Z,98545.47
2022-12-23T17:23:29.523Z,98546.09
2022-12-23T17:25:58.461Z,98546.88
2022-12-23T17:28:31.994Z,98555.97
2022-12-23T17:31:01.813Z,98541.38
2022-12-23T17:33:33.523Z,98524.63
2022-12-23T17:36:03.045Z,98524.94
2022-12-23T17:38:31.627Z,98523.06
2022-12-23T17:41:00.198Z,98533.03
2022-12-23T17:43:29.283Z,98523.75
2022-12-23T17:45:57.794Z,98520.16
2022-12-23T17:48:31.384Z,98525.41
2022-12-23T17:51:01.618Z,98536.44
2022-12-23T17:53:30.139Z,98532.34
2022-12-23T17:55:58.591Z,98541.50
2022-12-23T17:58:27.035Z,98524.72
2022-12-23T18:00:55.528Z,98524.00
2022-12-23T18:03:25.035Z,98532.88
2022-12-23T18:06:01.223Z,98516.63
2022-12-23T18:08:31.733Z,98523.84
2022-12-23T18:11:01.127Z,98533.53
2022-12-23T18:13:29.709Z,98528.31
2022-12-23T18:15:58.384Z,98525.56
2022-12-23T18:18:35.608Z,98511.47
2022-12-23T18:21:12.821Z,98528.31
2022-12-23T18:23:42.931Z,98519.84
2022-12-23T18:26:15.198Z,98526.53
2022-12-23T18:28:44.018Z,98521.06
2022-12-23T18:31:18.520Z,98509.63
2022-12-23T18:33:47.374Z,98514.38
2022-12-23T18:36:24.039Z,98512.53
2022-12-23T18:38:54.524Z,98522.50
2022-12-23T18:41:24.293Z,98521.16
2022-12-23T18:43:52.952Z,98529.69
2022-12-23T18:46:21.788Z,98532.75
2022-12-23T18:48:51.607Z,98534.41
2022-12-23T18:51:22.646Z,98531.34
2022-12-23T18:53:51.548Z,98526.34
2022-12-23T18:56:22.816Z,98531.28
2022-12-23T18:58:51.307Z,98532.09
2022-12-23T19:01:20.519Z,98519.13
2022-12-23T19:03:49.123Z,98524.38
2022-12-23T19:06:17.883Z,98527.91
2022-12-23T19:08:46.587Z,98518.34
2022-12-23T19:11:17.414Z,98523.09
2022-12-23T19:13:47.837Z,98511.63
2022-12-23T19:16:18.580Z,98519.13
2022-12-23T19:18:48.267Z,98516.66
2022-12-23T19:21:18.391Z,98515.31
2022-12-23T19:23:46.955Z,98511.22
2022-12-23T19:26:16.268Z,98510.69
2022-12-23T19:28:48.180Z,98502.75
2022-12-23T19:31:18.545Z,98496.72
2022-12-23T19:33:48.370Z,98499.75
2022-12-23T19:36:20.218Z,98495.38
2022-12-23T19:38:48.753Z,98500.88
2022-12-23T19:41:17.426Z,98492.91
2022-12-23T19:43:47.952Z,98493.22
2022-12-23T19:46:17.995Z,98482.19
2022-12-23T19:48:52.921Z,98493.50
2022-12-23T19:51:21.849Z,98505.34
2022-12-23T19:53:53.090Z,98493.78
2022-12-23T19:56:22.389Z,98488.06
2022-12-23T19:58:52.270Z,98492.75
2022-12-23T20:01:24.029Z,98478.78
2022-12-23T20:03:54.878Z,98468.03
2022-12-23T20:06:25.635Z,98468.88
2022-12-23T20:09:00.011Z,98464.50
2022-12-23T20:11:31.023Z,98462.84
2022-12-23T20:14:02.642Z,98460.41
2022-12-23T20:16:32.264Z,98457.91
2022-12-23T20:19:01.131Z,98464.25
2022-12-23T20:21:30.894Z,98466.19
2022-12-23T20:23:59.482Z,98461.22
2022-12-23T20:26:29.184Z,98467.63
2022-12-23T20:28:58.512Z,98462.72
2022-12-23T20:31:31.814Z,98452.88
2022-12-23T20:34:01.951Z,98469.69
2022-12-23T20:36:34.242Z,98445.81
2022-12-23T20:39:04.112Z,98439.28
2022-12-23T20:41:33.727Z,98439.84
2022-12-23T20:44:33.882Z,98434.66
2022-12-23T20:46:52.881Z,98432.41
2022-12-23T20:49:21.581Z,98429.38
2022-12-23T20:51:50.093Z,98423.28
2022-12-23T20:54:18.634Z,98415.53
2022-12-23T20:56:47.154Z,98419.13
2022-12-23T20:59:15.612Z,98419.63
2022-12-23T21:01:44.096Z,98410.25
2022-12-23T21:04:16.832Z,98409.16
2022-12-23T21:06:45.887Z,98417.91
2022-12-23T21:09:16.483Z,98404.69
2022-12-23T21:11:47.479Z,98407.94
2022-12-23T21:14:16.890Z,98406.34
2022-12-23T21:16:45.866Z,98400.81
2022-12-23T21:19:19.691Z,98394.50
2022-12-23T21:21:49.220Z,98396.13
2022-12-23T21:24:18.664Z,98393.38
2022-12-23T21:26:55.619Z,98395.31
2022-12-23T21:29:25.151Z,98381.56
2022-12-23T21:31:55.027Z,98394.50
2022-12-23T21:34:25.380Z,98390.34
2022-12-23T21:36:53.985Z,98381.56
2022-12-23T21:39:22.543Z,98380.75
2022-12-23T21:41:52.778Z,98362.88
2022-12-23T21:44:21.236Z,98373.38
2022-12-23T21:46:52.119Z,98376.13
2022-12-23T21:49:21.490Z,98373.91
2022-12-23T21:51:51.469Z,98375.00
2022-12-23T21:54:20.012Z,98359.94
2022-12-23T21:56:48.459Z,98383.34
2022-12-23T21:59:17.088Z,98370.47
2022-12-23T22:01:45.690Z,98380.66
2022-12-23T22:04:14.663Z,98374.34
2022-12-23T22:06:45.700Z,98360.88
2022-12-23T22:09:18.506Z,98366.91
2022-12-23T22:11:47.969Z,98361.09
2022-12-23T22:14:19.879Z,98366.31
2022-12-23T22:16:48.464Z,98366.84
2022-12-23T22:19:17.701Z,98361.03
2022-12-23T22:21:46.382Z,98370.31
2022-12-23T22:24:16.239Z,98366.97
2022-12-23T22:26:44.713Z,98359.53
2022-12-23T22:29:13.452Z,98358.41
2022-12-23T22:31:45.989Z,98371.91
2022-12-23T22:34:17.585Z,98369.94
2022-12-23T22:36:46.618Z,98366.91
2022-12-23T22:39:21.008Z,98345.47
2022-12-23T22:41:50.571Z,98353.22
2022-12-23T22:44:19.600Z,98350.53
2022-12-23T22:46:48.075Z,98351.44
2022-12-23T22:49:17.700Z,98345.16
2022-12-23T22:51:46.554Z,98333.13
2022-12-23T22:54:16.435Z,98338.69
2022-12-23T22:56:45.885Z,98328.59
2022-12-23T22:59:22.780Z,98317.69
2022-12-23T23:01:53.561Z,98321.84
2022-12-23T23:04:22.523Z,98320.00
2022-12-23T23:06:51.146Z,98328.81
2022-12-23T23:09:23.205Z,98334.91
2022-12-23T23:11:54.259Z,98324.22
2022-12-23T23:14:22.795Z,98313.50
2022-12-23T23:16:51.404Z,98323.69
2022-12-23T23:19:21.278Z,98315.72
2022-12-23T23:21:49.974Z,98322.34
2022-12-23T23:24:18.480Z,98338.31
2022-12-23T23:26:48.334Z,98332.31
2022-12-23T23:29:16.848Z,98324.34
2022-12-23T23:31:45.428Z,98327.34
2022-12-23T23:34:13.948Z,98327.94
2022-12-23T23:36:42.898Z,98340.34
2022-12-23T23:39:13.798Z,98351.63
2022-12-23T23:41:42.533Z,98358.78
2022-12-23T23:44:13.036Z,98351.63
2022-12-23T23:46:41.730Z,98360.19
2022-12-23T23:49:10.211Z,98375.03
2022-12-23T23:51:39.248Z,98380.84
2022-12-23T23:54:07.888Z,98381.09
2022-12-23T23:56:39.236Z,98380.31
2022-12-23T23:59:09.029Z,98359.41
